Time;durP1;ratioP1;P1;durP2;ratioP2;P2;SDS_P1;SDS_P2;PMS_P1;PMS_P2;Temp;Humidity;BMP_temperature;BMP_pressure;BME280_temperature;BME280_humidity;BME280_pressure;Samples;Min_cycle;Max_cycle;Signal;HPM_P1;HPM_P2
2024/04/07 00:01:55;;;;;;;1.83;1.43;;;19.10;82.50;;;;;;5057772;28;20463;-81
2024/04/07 00:04:22;;;;;;;1.90;1.70;;;19.20;85.00;;;;;;5056608;28;20462;-81
2024/04/07 00:06:49;;;;;;;1.53;1.40;;;19.00;96.30;;;;;;5060052;28;20544;-81
2024/04/07 00:09:16;;;;;;;1.57;1.43;;;19.10;81.30;;;;;;5054034;28;21205;-82
2024/04/07 00:11:42;;;;;;;1.70;1.60;;;19.10;81.40;;;;;;5062077;28;20447;-82
2024/04/07 00:14:10;;;;;;;1.40;1.30;;;19.10;83.30;;;;;;5055452;28;20969;-81
2024/04/07 00:16:37;;;;;;;3.10;1.50;;;19.10;82.70;;;;;;5055886;28;20474;-80
2024/04/07 00:19:05;;;;;;;1.50;1.40;;;19.10;85.20;;;;;;5056813;28;20459;-82
2024/04/07 00:21:31;;;;;;;1.60;1.50;;;19.00;82.00;;;;;;5057432;28;20528;-82
2024/04/07 00:23:58;;;;;;;1.60;1.50;;;19.00;82.90;;;;;;5059042;28;20506;-80
2024/04/07 00:26:24;;;;;;;1.33;1.33;;;19.00;80.60;;;;;;5073996;28;20463;-81
2024/04/07 00:28:52;;;;;;;1.63;1.53;;;19.00;80.70;;;;;;5063607;28;20484;-80
2024/04/07 00:31:18;;;;;;;4.13;1.70;;;19.10;80.90;;;;;;5060330;28;20526;-82
2024/04/07 00:33:47;;;;;;;1.80;1.50;;;19.20;83.00;;;;;;5059235;28;20480;-82
2024/04/07 00:36:13;;;;;;;1.50;1.40;;;19.10;83.00;;;;;;5060816;28;20462;-81
2024/04/07 00:38:40;;;;;;;1.63;1.53;;;19.10;83.10;;;;;;5056485;28;20440;-82
2024/04/07 00:41:07;;;;;;;1.57;1.33;;;19.00;84.40;;;;;;5056321;28;20482;-82
2024/04/07 00:43:37;;;;;;;1.80;1.70;;;19.00;83.30;;;;;;5053467;28;20541;-82
2024/04/07 00:46:04;;;;;;;1.90;1.80;;;18.90;81.60;;;;;;5057860;28;20866;-81
2024/04/07 00:48:32;;;;;;;1.90;1.40;;;18.80;79.60;;;;;;5055512;28;21256;-81
2024/04/07 00:51:00;;;;;;;1.73;1.60;;;18.80;81.50;;;;;;5052783;28;20471;-81
2024/04/07 00:53:28;;;;;;;1.60;1.50;;;18.90;79.90;;;;;;5036197;28;20447;-81
2024/04/07 00:55:54;;;;;;;1.53;1.40;;;18.90;79.70;;;;;;5062515;28;20474;-80
2024/04/07 00:58:22;;;;;;;1.60;1.50;;;19.00;79.90;;;;;;5058077;28;20459;-81
2024/04/07 01:00:48;;;;;;;1.60;1.50;;;19.10;80.70;;;;;;5037316;28;20491;-82
2024/04/07 01:03:16;;;;;;;1.60;1.50;;;19.10;82.30;;;;;;5057120;28;21040;-82
2024/04/07 01:05:43;;;;;;;1.93;1.40;;;18.90;80.10;;;;;;5041176;28;20454;-81
2024/04/07 01:08:13;;;;;;;1.70;1.60;;;18.90;81.50;;;;;;5041632;28;20558;-82
2024/04/07 01:10:40;;;;;;;1.30;1.30;;;18.80;81.20;;;;;;5055360;28;20520;-80
2024/04/07 01:13:09;;;;;;;2.60;1.50;;;18.70;78.10;;;;;;5057659;28;20458;-82
2024/04/07 01:15:36;;;;;;;1.60;1.50;;;18.80;79.50;;;;;;5058086;28;20451;-83
2024/04/07 01:18:03;;;;;;;2.00;1.80;;;18.80;78.70;;;;;;5051942;28;20960;-82
2024/04/07 01:20:31;;;;;;;2.60;1.30;;;18.80;79.90;;;;;;5056579;28;20475;-82
2024/04/07 01:22:58;;;;;;;1.77;1.67;;;18.80;78.10;;;;;;5058916;28;20454;-81
2024/04/07 01:25:26;;;;;;;1.50;1.40;;;18.80;79.30;;;;;;5055025;28;20490;-82
2024/04/07 01:27:56;;;;;;;1.87;1.70;;;18.80;80.10;;;;;;5053243;28;20466;-82
2024/04/07 01:30:22;;;;;;;1.70;1.60;;;18.60;78.10;;;;;;5055105;28;20539;-83
2024/04/07 01:32:50;;;;;;;1.67;1.57;;;18.50;77.80;;;;;;5062637;28;20504;-83
2024/04/07 01:35:17;;;;;;;1.70;1.60;;;18.40;76.10;;;;;;5055924;28;20448;-80
2024/04/07 01:37:44;;;;;;;1.63;1.53;;;18.30;75.60;;;;;;5053896;28;20483;-83
2024/04/07 01:40:11;;;;;;;2.80;1.50;;;18.10;74.20;;;;;;5052639;28;20510;-84
2024/04/07 01:42:41;;;;;;;2.97;1.50;;;18.10;74.00;;;;;;5055593;28;20956;-83
2024/04/07 01:45:08;;;;;;;1.77;1.67;;;18.10;73.90;;;;;;5038807;28;20483;-82
2024/04/07 01:47:37;;;;;;;1.70;1.60;;;18.10;74.60;;;;;;5053026;28;20536;-82
2024/04/07 01:50:04;;;;;;;1.60;1.50;;;18.00;73.50;;;;;;5050168;28;20507;-81
2024/04/07 01:52:32;;;;;;;2.27;1.70;;;18.00;72.80;;;;;;5053826;28;20489;-81
2024/04/07 01:54:58;;;;;;;3.17;1.40;;;17.90;71.30;;;;;;5051843;28;20490;-81
2024/04/07 01:57:25;;;;;;;2.60;1.57;;;17.90;71.20;;;;;;5048468;28;20579;-83
2024/04/07 01:59:54;;;;;;;1.60;1.50;;;17.90;71.90;;;;;;5061926;28;21002;-82
2024/04/07 02:02:21;;;;;;;1.97;1.50;;;17.90;71.00;;;;;;5059005;28;20470;-81
2024/04/07 02:04:47;;;;;;;1.57;1.47;;;17.90;71.50;;;;;;5058978;28;20440;-80
2024/04/07 02:07:15;;;;;;;1.80;1.70;;;17.80;71.10;;;;;;5059466;28;20474;-84
2024/04/07 02:09:41;;;;;;;1.60;1.50;;;17.90;71.90;;;;;;5056242;28;21192;-80
2024/04/07 02:12:09;;;;;;;1.93;1.80;;;17.90;73.20;;;;;;5060135;28;20486;-82
2024/04/07 02:14:35;;;;;;;2.93;1.57;;;17.90;72.00;;;;;;5059808;28;20458;-83
2024/04/07 02:17:05;;;;;;;1.60;1.50;;;18.00;74.30;;;;;;5058662;28;20505;-81
2024/04/07 02:19:31;;;;;;;1.47;1.37;;;18.20;76.60;;;;;;5063917;28;20484;-82
2024/04/07 02:21:58;;;;;;;2.07;1.60;;;18.40;78.50;;;;;;5054260;28;20488;-81
2024/04/07 02:24:25;;;;;;;1.60;1.50;;;18.50;82.20;;;;;;5051938;28;20442;-82
2024/04/07 02:26:52;;;;;;;2.70;1.50;;;18.60;81.40;;;;;;5051654;28;20881;-82
2024/04/07 02:29:18;;;;;;;1.60;1.50;;;18.60;81.90;;;;;;5034895;28;20529;-82
2024/04/07 02:31:46;;;;;;;1.50;1.40;;;18.70;83.10;;;;;;5045846;28;21009;-82
2024/04/07 02:34:13;;;;;;;1.40;1.30;;;18.70;84.70;;;;;;5061442;28;20483;-81
2024/04/07 02:36:41;;;;;;;1.80;1.30;;;18.80;86.70;;;;;;5069606;28;20453;-81
2024/04/07 02:39:09;;;;;;;2.00;1.73;;;18.80;86.40;;;;;;5065770;28;20456;-82
2024/04/07 02:41:36;;;;;;;1.57;1.47;;;18.80;86.50;;;;;;5067014;28;20487;-82
2024/04/07 02:44:03;;;;;;;1.53;1.43;;;18.80;86.60;;;;;;5061663;28;20454;-83
2024/04/07 02:49:16;;;;;;;1.50;1.40;;;18.90;88.60;;;;;;5061366;28;20447;-82
2024/04/07 02:51:44;;;;;;;1.60;1.50;;;18.80;87.80;;;;;;5063085;28;20458;-80
2024/04/07 02:54:11;;;;;;;1.40;1.30;;;18.90;97.70;;;;;;5057190;28;20478;-83
2024/04/07 02:56:37;;;;;;;1.50;1.40;;;18.90;89.50;;;;;;5054216;28;20458;-82
2024/04/07 02:59:05;;;;;;;1.63;1.53;;;18.90;88.40;;;;;;5053371;28;20475;-81
2024/04/07 03:01:31;;;;;;;1.80;1.70;;;18.90;89.00;;;;;;5060627;28;20564;-81
2024/04/07 03:03:58;;;;;;;1.70;1.60;;;18.80;88.50;;;;;;5056460;28;20455;-81
2024/04/07 03:06:26;;;;;;;1.83;1.50;;;18.90;87.90;;;;;;5057265;28;20444;-82
2024/04/07 03:08:57;;;;;;;2.20;1.50;;;18.80;87.50;;;;;;5054814;28;20531;-81
2024/04/07 03:11:23;;;;;;;1.60;1.50;;;18.90;87.70;;;;;;5059070;28;20444;-81
2024/04/07 03:13:50;;;;;;;2.43;1.80;;;18.90;88.30;;;;;;5058839;28;20485;-83
2024/04/07 03:16:16;;;;;;;1.63;1.40;;;18.80;88.10;;;;;;5075727;28;20441;-81
2024/04/07 03:18:44;;;;;;;1.47;1.43;;;18.80;89.60;;;;;;5056686;28;20447;-81
2024/04/07 03:21:10;;;;;;;2.40;1.80;;;18.80;88.70;;;;;;5055016;28;20463;-80
2024/04/07 03:23:39;;;;;;;1.70;1.60;;;18.70;88.60;;;;;;5060227;28;21388;-82
2024/04/07 03:26:05;;;;;;;2.40;2.07;;;18.70;88.50;;;;;;5057521;28;20455;-82
2024/04/07 03:28:32;;;;;;;1.60;1.50;;;18.60;89.00;;;;;;5060354;28;20477;-80
2024/04/07 03:30:59;;;;;;;1.60;1.50;;;18.60;87.90;;;;;;5053165;28;20509;-80
2024/04/07 03:33:26;;;;;;;1.70;1.60;;;18.60;87.40;;;;;;5061150;28;20464;-79
2024/04/07 03:36:01;;;;;;;1.70;1.60;;;18.50;86.70;;;;;;5054691;28;20949;-80
2024/04/07 03:38:28;;;;;;;2.63;1.60;;;18.40;86.00;;;;;;5055076;28;20479;-80
2024/04/07 03:40:56;;;;;;;1.50;1.40;;;18.50;86.20;;;;;;5052780;28;20474;-80
2024/04/07 03:43:24;;;;;;;1.73;1.63;;;18.40;86.50;;;;;;5059340;28;20491;-80
2024/04/07 03:45:59;;;;;;;1.93;1.60;;;18.40;86.30;;;;;;5054504;28;20439;-81
2024/04/07 03:48:27;;;;;;;1.90;1.80;;;18.40;85.80;;;;;;5056564;28;20921;-81
2024/04/07 03:50:56;;;;;;;1.73;1.47;;;18.30;87.70;;;;;;5057403;28;20543;-81
2024/04/07 03:53:23;;;;;;;1.60;1.50;;;18.30;85.30;;;;;;5057281;28;20513;-81
2024/04/07 03:55:51;;;;;;;1.63;1.53;;;18.30;86.70;;;;;;5058946;28;20463;-82
2024/04/07 03:58:18;;;;;;;1.70;1.60;;;18.30;86.80;;;;;;5058620;28;20463;-82
2024/04/07 04:00:46;;;;;;;2.13;1.60;;;18.20;86.90;;;;;;5054161;28;20532;-81
2024/04/07 04:03:13;;;;;;;3.40;1.80;;;18.20;87.20;;;;;;5057006;28;21435;-81
2024/04/07 04:05:39;;;;;;;1.43;1.40;;;18.20;86.70;;;;;;5056206;28;20458;-81
2024/04/07 04:08:07;;;;;;;1.77;1.67;;;18.10;87.20;;;;;;5055734;28;20497;-80
2024/04/07 04:10:37;;;;;;;4.07;1.90;;;18.10;87.40;;;;;;5055102;28;20509;-81
2024/04/07 04:13:05;;;;;;;1.63;1.50;;;18.10;87.00;;;;;;5055353;28;20486;-81
2024/04/07 04:15:35;;;;;;;1.60;1.50;;;18.10;87.80;;;;;;5051629;28;20459;-81
2024/04/07 04:18:02;;;;;;;2.20;1.80;;;17.90;86.60;;;;;;5057211;28;20439;-81
2024/04/07 04:20:28;;;;;;;1.97;1.87;;;18.00;87.90;;;;;;5057038;28;20574;-82
2024/04/07 04:22:56;;;;;;;1.47;1.37;;;17.90;89.30;;;;;;5048824;28;21193;-80
2024/04/07 04:25:22;;;;;;;2.03;1.60;;;17.90;86.70;;;;;;5056769;28;20924;-80
2024/04/07 04:27:50;;;;;;;1.60;1.50;;;18.00;88.20;;;;;;5056914;28;20462;-81
2024/04/07 04:30:16;;;;;;;1.57;1.47;;;18.00;87.10;;;;;;5055641;28;20482;-82
2024/04/07 04:32:47;;;;;;;2.17;1.53;;;18.00;87.70;;;;;;5059324;28;20491;-80
2024/04/07 04:35:14;;;;;;;1.60;1.50;;;18.20;89.40;;;;;;5055037;28;20486;-81
2024/04/07 04:37:41;;;;;;;1.70;1.60;;;18.30;89.00;;;;;;5055685;28;20473;-81
2024/04/07 04:40:11;;;;;;;1.60;1.50;;;18.30;90.20;;;;;;5054122;28;20483;-81
2024/04/07 04:42:38;;;;;;;1.47;1.40;;;18.40;89.50;;;;;;5054847;28;20451;-82
2024/04/07 04:45:06;;;;;;;1.90;1.60;;;18.30;88.30;;;;;;5055621;28;20955;-79
2024/04/07 04:47:33;;;;;;;1.73;1.63;;;18.30;87.10;;;;;;5054804;28;20574;-80
2024/04/07 04:50:01;;;;;;;2.20;2.10;;;18.30;87.50;;;;;;5054804;28;20473;-80
2024/04/07 04:52:29;;;;;;;5.03;1.50;;;18.30;87.70;;;;;;5059446;28;20451;-80
2024/04/07 04:54:56;;;;;;;3.33;1.50;;;18.30;86.90;;;;;;5054617;28;20441;-79
2024/04/07 04:57:23;;;;;;;2.60;1.47;;;18.40;87.50;;;;;;5050772;28;20451;-80
2024/04/07 04:59:52;;;;;;;1.50;1.40;;;18.40;87.50;;;;;;5052038;28;20519;-80
2024/04/07 05:02:19;;;;;;;1.60;1.50;;;18.40;86.50;;;;;;5050377;28;21262;-79
2024/04/07 05:04:46;;;;;;;1.93;1.80;;;18.50;87.40;;;;;;5053655;28;20455;-79
2024/04/07 05:07:14;;;;;;;1.97;1.40;;;18.50;87.30;;;;;;5052295;28;20567;-80
2024/04/07 05:09:41;;;;;;;1.67;1.50;;;18.50;86.70;;;;;;5053271;28;20470;-82
2024/04/07 05:12:09;;;;;;;1.73;1.60;;;18.50;88.10;;;;;;5041334;28;20534;-81
2024/04/07 05:14:35;;;;;;;1.50;1.40;;;18.50;86.70;;;;;;5057451;28;20447;-81
2024/04/07 05:17:02;;;;;;;1.67;1.57;;;18.40;88.20;;;;;;5054416;28;20470;-82
2024/04/07 05:19:28;;;;;;;2.23;1.80;;;18.40;86.50;;;;;;5053252;28;21081;-79
2024/04/07 05:21:56;;;;;;;2.30;1.50;;;18.40;84.60;;;;;;5037029;28;21260;-79
2024/04/07 05:24:23;;;;;;;1.57;1.47;;;18.40;84.90;;;;;;5053623;28;20451;-80
2024/04/07 05:26:50;;;;;;;1.60;1.47;;;18.50;84.30;;;;;;5053666;28;20501;-80
2024/04/07 05:29:17;;;;;;;1.50;1.40;;;18.40;86.40;;;;;;5052554;28;20486;-80
2024/04/07 05:31:45;;;;;;;1.83;1.73;;;18.30;87.70;;;;;;5056664;28;20506;-80
2024/04/07 05:34:13;;;;;;;1.40;1.30;;;18.20;85.90;;;;;;5054688;28;20465;-81
2024/04/07 05:36:39;;;;;;;2.10;1.90;;;18.10;84.50;;;;;;5057171;28;20486;-81
2024/04/07 05:39:07;;;;;;;1.80;1.70;;;18.00;84.00;;;;;;5054304;28;20486;-81
2024/04/07 05:41:35;;;;;;;1.37;1.30;;;18.00;85.40;;;;;;5056487;28;20867;-82
2024/04/07 05:44:02;;;;;;;1.70;1.60;;;17.90;85.20;;;;;;5058717;28;20446;-81
2024/04/07 05:46:28;;;;;;;2.47;1.73;;;17.70;83.90;;;;;;5062856;28;20456;-80
2024/04/07 05:48:56;;;;;;;2.10;1.90;;;17.80;85.10;;;;;;5053961;28;20471;-79
2024/04/07 05:51:23;;;;;;;2.90;2.20;;;17.80;85.90;;;;;;5066493;28;20490;-79
2024/04/07 05:53:50;;;;;;;1.70;1.60;;;17.70;87.70;;;;;;5053631;28;20486;-79
2024/04/07 05:56:16;;;;;;;4.03;1.90;;;17.60;87.20;;;;;;5045771;28;20467;-78
2024/04/07 05:58:45;;;;;;;1.90;1.80;;;17.60;88.30;;;;;;5048108;28;20447;-81
2024/04/07 06:01:11;;;;;;;2.47;2.27;;;17.60;90.70;;;;;;5049376;28;20472;-80
2024/04/07 06:03:38;;;;;;;2.40;1.60;;;17.60;90.20;;;;;;5049777;28;20491;-79
2024/04/07 06:06:05;;;;;;;2.03;1.70;;;17.70;91.00;;;;;;5035717;28;20447;-79
2024/04/07 06:08:32;;;;;;;1.70;1.60;;;17.70;90.30;;;;;;5053178;28;21399;-79
2024/04/07 06:11:01;;;;;;;1.70;1.60;;;17.70;90.40;;;;;;5054179;28;20491;-79
2024/04/07 06:13:29;;;;;;;4.07;1.63;;;17.70;90.70;;;;;;5065240;28;20435;-78
2024/04/07 06:15:56;;;;;;;4.70;1.73;;;17.70;90.50;;;;;;5054970;28;20550;-78
2024/04/07 06:18:25;;;;;;;1.57;1.47;;;17.50;87.50;;;;;;5051756;28;20235;-78
2024/04/07 06:20:53;;;;;;;3.60;1.70;;;17.70;90.20;;;;;;5038009;28;20556;-79
2024/04/07 06:23:20;;;;;;;2.10;1.90;;;17.90;91.90;;;;;;5038789;28;20459;-81
2024/04/07 06:25:47;;;;;;;2.60;1.53;;;18.00;99.90;;;;;;5059716;28;20496;-81
2024/04/07 06:28:14;;;;;;;2.27;1.90;;;17.90;92.00;;;;;;5058165;28;20506;-80
2024/04/07 06:30:40;;;;;;;2.03;1.70;;;17.90;92.30;;;;;;5057109;28;20519;-81
2024/04/07 06:33:09;;;;;;;1.80;1.70;;;18.10;99.90;;;;;;5057401;28;20482;-81
2024/04/07 06:35:35;;;;;;;1.80;1.70;;;18.10;91.70;;;;;;5053246;28;20478;-80
2024/04/07 06:38:02;;;;;;;2.00;1.80;;;18.10;93.70;;;;;;5057806;28;20447;-82
2024/04/07 06:40:28;;;;;;;4.23;2.40;;;18.10;95.20;;;;;;5058556;28;20492;-81
2024/04/07 06:42:55;;;;;;;1.97;1.87;;;18.00;94.20;;;;;;5058904;28;20475;-83
2024/04/07 06:45:21;;;;;;;1.90;1.67;;;18.00;93.50;;;;;;5060616;28;20458;-81
2024/04/07 06:47:49;;;;;;;1.93;1.83;;;17.90;92.60;;;;;;5054607;28;20478;-84
2024/04/07 06:50:16;;;;;;;2.23;1.80;;;18.00;94.30;;;;;;5056613;28;20965;-81
2024/04/07 06:52:44;;;;;;;1.93;1.80;;;18.00;96.50;;;;;;5055342;28;20455;-81
2024/04/07 06:55:10;;;;;;;2.97;1.80;;;18.10;97.10;;;;;;5069785;28;20482;-83
2024/04/07 06:57:38;;;;;;;1.80;1.63;;;18.20;96.50;;;;;;5052020;28;20497;-83
2024/04/07 07:00:05;;;;;;;2.50;1.60;;;18.30;96.50;;;;;;5057429;28;20467;-81
2024/04/07 07:02:33;;;;;;;1.60;1.50;;;18.40;97.10;;;;;;5054496;28;20447;-82
2024/04/07 07:05:00;;;;;;;2.03;1.60;;;18.50;95.90;;;;;;5061099;28;20491;-82
2024/04/07 07:07:28;;;;;;;2.70;2.50;;;18.60;96.10;;;;;;5058730;28;20509;-81
2024/04/07 07:09:54;;;;;;;3.60;2.40;;;18.70;96.50;;;;;;5057031;28;20511;-82
2024/04/07 07:12:22;;;;;;;2.80;1.73;;;18.70;96.10;;;;;;5056052;28;20466;-82
2024/04/07 07:14:48;;;;;;;3.13;1.60;;;18.80;96.60;;;;;;5058590;28;20454;-80
2024/04/07 07:17:16;;;;;;;3.50;1.80;;;18.80;96.70;;;;;;5057515;28;20458;-80
2024/04/07 07:19:42;;;;;;;2.00;1.80;;;18.90;96.80;;;;;;5052180;28;20470;-79
2024/04/07 07:22:09;;;;;;;3.30;2.10;;;18.90;97.20;;;;;;5052937;28;21130;-81
2024/04/07 07:24:37;;;;;;;3.63;1.73;;;18.90;97.30;;;;;;5053899;28;20956;-82
2024/04/07 07:27:05;;;;;;;4.03;2.00;;;18.90;96.90;;;;;;5054108;28;20983;-82
2024/04/07 07:29:32;;;;;;;2.97;1.60;;;19.00;96.90;;;;;;5051228;28;20865;-78
2024/04/07 07:35:47;;;;;;;1.87;1.77;;;19.10;98.00;;;;;;5054047;28;20444;-79
2024/04/07 07:38:35;;;;;;;5.80;2.87;;;19.20;98.90;;;;;;5060485;28;20443;-78
2024/04/07 07:41:41;;;;;;;2.87;1.97;;;19.30;99.90;;;;;;5051002;28;20518;-80
2024/04/07 07:44:11;;;;;;;2.63;1.70;;;19.30;99.90;;;;;;5049332;28;20466;-79
2024/04/07 07:46:41;;;;;;;4.00;1.67;;;19.30;99.60;;;;;;5054389;28;20439;-80
2024/04/07 07:49:08;;;;;;;3.03;2.00;;;19.40;99.90;;;;;;5056432;28;20502;-79
2024/04/07 07:51:35;;;;;;;3.75;2.10;;;19.50;99.90;;;;;;5052948;28;20529;-82
2024/04/07 07:54:01;;;;;;;4.80;2.10;;;19.50;99.90;;;;;;5056594;28;20664;-81
2024/04/07 07:56:29;;;;;;;4.65;2.40;;;19.60;99.90;;;;;;5051804;28;20455;-78
2024/04/07 07:58:55;;;;;;;3.17;2.40;;;19.60;99.90;;;;;;5052999;28;20762;-78
2024/04/07 08:01:23;;;;;;;4.20;2.30;;;19.70;99.90;;;;;;5054085;28;20479;-79
2024/04/07 08:03:50;;;;;;;3.00;2.10;;;19.80;99.90;;;;;;5054372;28;20457;-83
2024/04/07 08:06:17;;;;;;;5.37;2.20;;;19.80;99.90;;;;;;5054677;28;20497;-78
2024/04/07 08:08:43;;;;;;;5.77;2.20;;;19.80;99.90;;;;;;5053543;28;20526;-80
2024/04/07 08:11:10;;;;;;;3.13;1.77;;;19.80;99.90;;;;;;5054384;28;20573;-78
2024/04/07 08:13:36;;;;;;;7.43;2.07;;;19.90;99.90;;;;;;5052159;28;20592;-79
2024/04/07 08:16:04;;;;;;;3.73;2.07;;;19.90;99.90;;;;;;5053157;28;20493;-78
2024/04/07 08:18:34;;;;;;;5.13;2.20;;;19.90;99.90;;;;;;5054099;28;20486;-80
2024/04/07 08:21:01;;;;;;;5.90;2.00;;;19.90;99.90;;;;;;5051753;28;20511;-79
2024/04/07 08:23:29;;;;;;;7.13;2.20;;;20.00;99.90;;;;;;5053155;28;20563;-80
2024/04/07 08:25:56;;;;;;;3.43;1.67;;;20.00;99.90;;;;;;5046563;28;20491;-80
2024/04/07 08:28:24;;;;;;;6.83;2.13;;;20.00;99.90;;;;;;5048938;28;20507;-79
2024/04/07 08:30:51;;;;;;;7.57;2.33;;;20.10;99.90;;;;;;5044083;28;20506;-80
2024/04/07 08:33:19;;;;;;;3.00;2.60;;;20.10;99.90;;;;;;5049735;28;20846;-79
2024/04/07 08:35:47;;;;;;;4.13;2.00;;;20.10;99.90;;;;;;5048586;28;21011;-79
2024/04/07 08:38:14;;;;;;;4.07;1.93;;;20.10;99.90;;;;;;5047485;28;20894;-77
2024/04/07 08:40:41;;;;;;;8.20;2.27;;;20.20;99.90;;;;;;5048701;28;20475;-77
2024/04/07 08:43:08;;;;;;;3.17;1.70;;;20.20;99.90;;;;;;5053211;28;20545;-77
2024/04/07 08:45:37;;;;;;;3.55;2.13;;;20.20;99.90;;;;;;5050923;28;20438;-76
2024/04/07 08:48:08;;;;;;;3.38;1.98;;;20.20;99.90;;;;;;5049877;28;20533;-80
2024/04/07 08:50:34;;;;;;;2.70;1.87;;;20.30;99.90;;;;;;5051920;28;20310;-77
2024/04/07 08:53:05;;;;;;;4.40;2.00;;;20.40;99.90;;;;;;5058363;28;20567;-78
2024/04/07 08:55:32;;;;;;;5.93;1.97;;;20.40;99.90;;;;;;5036248;28;21239;-78
2024/04/07 08:58:00;;;;;;;3.43;1.83;;;20.40;99.90;;;;;;5051640;28;20549;-77
2024/04/07 09:00:27;;;;;;;2.87;1.70;;;20.40;99.90;;;;;;5049179;28;20958;-77
2024/04/07 09:02:57;;;;;;;6.27;2.20;;;20.40;99.90;;;;;;5048127;28;20575;-77
2024/04/07 09:05:23;;;;;;;3.17;1.70;;;20.50;99.90;;;;;;5052780;28;20550;-76
2024/04/07 09:07:50;;;;;;;4.37;2.37;;;20.50;99.90;;;;;;5048866;28;20458;-78
2024/04/07 09:10:19;;;;;;;2.90;2.03;;;20.60;99.90;;;;;;5046599;28;20482;-77
2024/04/07 09:12:46;;;;;;;5.40;2.43;;;20.70;99.90;;;;;;5053316;28;20553;-76
2024/04/07 09:15:13;;;;;;;5.77;1.67;;;20.80;99.90;;;;;;5048879;28;20562;-78
2024/04/07 09:17:40;;;;;;;2.40;1.77;;;20.90;99.90;;;;;;5047904;28;20541;-76
2024/04/07 09:20:18;;;;;;;3.87;1.60;;;20.90;99.90;;;;;;5045471;28;20500;-79
2024/04/07 09:22:46;;;;;;;3.93;2.07;;;21.00;99.90;;;;;;5049162;28;20475;-77
2024/04/07 09:25:13;;;;;;;6.37;1.70;;;21.00;99.90;;;;;;5048311;28;20490;-77
2024/04/07 09:27:42;;;;;;;3.97;1.73;;;21.00;99.90;;;;;;5038004;28;20531;-78
2024/04/07 09:30:10;;;;;;;4.17;2.17;;;21.00;99.90;;;;;;5053515;28;20502;-77
2024/04/07 09:32:36;;;;;;;4.67;1.73;;;21.00;99.90;;;;;;5051466;28;20458;-77
2024/04/07 09:35:04;;;;;;;3.30;1.97;;;21.00;99.90;;;;;;5051481;28;20482;-77
2024/04/07 09:37:30;;;;;;;1.70;1.60;;;21.10;99.90;;;;;;5054364;28;20554;-78
2024/04/07 09:39:57;;;;;;;5.70;2.00;;;21.00;99.90;;;;;;5045768;28;20562;-78
2024/04/07 09:42:27;;;;;;;5.80;2.17;;;21.00;99.90;;;;;;5050352;28;21269;-82
2024/04/07 09:44:58;;;;;;;4.50;1.80;;;21.10;99.90;;;;;;5049580;28;20446;-81
2024/04/07 09:47:27;;;;;;;1.90;1.70;;;21.00;99.90;;;;;;5045609;28;20932;-83
2024/04/07 09:49:59;;;;;;;7.87;2.23;;;21.10;99.90;;;;;;5054803;28;21126;-80
2024/04/07 09:52:30;;;;;;;3.60;2.20;;;21.10;99.90;;;;;;5052645;28;20468;-81
2024/04/07 09:55:04;;;;;;;2.07;1.60;;;21.20;99.90;;;;;;5050869;28;20450;-79
2024/04/07 09:57:30;;;;;;;4.80;2.23;;;21.30;99.90;;;;;;5050960;28;21020;-79
2024/04/07 10:00:00;;;;;;;3.20;1.87;;;21.40;99.90;;;;;;5050260;28;20466;-78
2024/04/07 10:02:27;;;;;;;8.33;1.93;;;21.40;99.90;;;;;;5058552;28;20479;-79
2024/04/07 10:04:54;;;;;;;5.50;1.63;;;21.50;99.90;;;;;;5058717;28;20480;-81
2024/04/07 10:07:21;;;;;;;4.40;1.77;;;21.50;99.90;;;;;;5052131;28;20471;-80
2024/04/07 10:09:51;;;;;;;5.67;2.17;;;21.60;99.90;;;;;;5053823;28;20479;-80
2024/04/07 10:12:27;;;;;;;2.23;1.50;;;21.60;99.90;;;;;;5052378;28;20589;-79
2024/04/07 10:14:54;;;;;;;5.20;2.10;;;21.60;99.90;;;;;;5050244;28;20458;-78
2024/04/07 10:17:22;;;;;;;4.13;1.53;;;21.70;99.90;;;;;;5052293;28;20478;-80
2024/04/07 10:19:50;;;;;;;4.13;1.90;;;21.70;99.90;;;;;;5048580;28;20554;-80
2024/04/07 10:22:17;;;;;;;3.30;1.53;;;21.80;99.90;;;;;;5051027;28;20447;-81
2024/04/07 10:24:48;;;;;;;3.53;1.63;;;21.90;99.90;;;;;;5052137;28;20446;-78
2024/04/07 10:27:22;;;;;;;6.07;1.40;;;21.90;99.90;;;;;;5053932;28;20538;-78
2024/04/07 10:29:54;;;;;;;3.93;1.70;;;21.90;99.90;;;;;;5032840;28;20503;-79
2024/04/07 10:32:28;;;;;;;6.10;1.73;;;22.00;99.90;;;;;;5051205;28;20483;-79
2024/04/07 10:35:04;;;;;;;2.37;1.57;;;22.00;99.90;;;;;;5060921;28;20457;-79
2024/04/07 10:37:31;;;;;;;2.40;1.70;;;22.10;99.90;;;;;;5061409;28;20480;-79
2024/04/07 10:39:59;;;;;;;3.23;1.20;;;22.10;99.90;;;;;;5052549;28;20506;-79
2024/04/07 10:42:25;;;;;;;4.63;1.67;;;22.20;99.90;;;;;;5050746;28;20514;-78
2024/04/07 10:44:53;;;;;;;2.70;1.70;;;22.20;99.90;;;;;;5052504;28;20877;-79
2024/04/07 10:47:19;;;;;;;4.57;2.13;;;22.20;99.90;;;;;;5051483;28;20488;-78
2024/04/07 10:49:48;;;;;;;2.60;1.63;;;22.20;99.90;;;;;;5050100;28;20669;-78
2024/04/07 10:52:15;;;;;;;2.73;1.50;;;22.20;99.90;;;;;;5051873;28;20488;-77
2024/04/07 10:54:43;;;;;;;5.20;2.07;;;22.20;99.90;;;;;;5055619;28;20644;-78
2024/04/07 10:57:13;;;;;;;4.77;1.93;;;22.30;99.90;;;;;;5054855;28;20463;-78
2024/04/07 10:59:41;;;;;;;7.67;1.90;;;22.30;99.90;;;;;;5058422;28;20446;-79
2024/04/07 11:02:08;;;;;;;5.65;1.90;;;22.30;99.90;;;;;;5048772;28;20543;-79
2024/04/07 11:04:36;;;;;;;4.23;1.60;;;22.30;99.90;;;;;;5052101;28;20221;-79
2024/04/07 11:07:04;;;;;;;2.53;1.53;;;22.40;99.90;;;;;;5052845;28;20965;-77
2024/04/07 11:09:32;;;;;;;3.77;1.73;;;22.40;99.90;;;;;;5039639;28;20475;-78
2024/04/07 11:12:00;;;;;;;5.73;1.70;;;22.40;99.90;;;;;;5056400;28;20609;-80
2024/04/07 11:14:27;;;;;;;3.40;1.70;;;22.30;99.90;;;;;;5053842;28;20566;-80
2024/04/07 11:16:54;;;;;;;5.70;1.60;;;22.30;99.90;;;;;;5052957;28;20486;-79
2024/04/07 11:19:23;;;;;;;2.07;1.40;;;22.40;99.90;;;;;;5052054;28;20443;-80
2024/04/07 11:21:50;;;;;;;4.27;1.50;;;22.40;99.90;;;;;;5053018;28;20511;-79
2024/04/07 11:24:20;;;;;;;5.90;2.10;;;22.40;99.90;;;;;;5049941;28;20872;-78
2024/04/07 11:26:48;;;;;;;2.90;1.97;;;22.40;99.90;;;;;;5059477;28;20557;-79
2024/04/07 11:29:16;;;;;;;7.07;3.77;;;22.50;99.90;;;;;;5052619;28;20503;-81
2024/04/07 11:31:49;;;;;;;3.80;1.83;;;22.60;99.90;;;;;;5055796;28;20462;-79
2024/04/07 11:34:19;;;;;;;2.47;1.60;;;22.60;99.90;;;;;;5052267;28;21495;-79
2024/04/07 11:36:47;;;;;;;5.03;2.03;;;22.60;99.90;;;;;;5061077;28;20534;-80
2024/04/07 11:39:15;;;;;;;7.77;2.20;;;22.60;99.90;;;;;;5051327;28;20454;-80
2024/04/07 11:41:43;;;;;;;2.90;1.40;;;22.60;99.90;;;;;;5052219;28;20503;-78
2024/04/07 11:44:10;;;;;;;4.00;2.20;;;22.60;99.90;;;;;;5050849;28;20475;-80
2024/04/07 11:46:37;;;;;;;6.13;1.77;;;22.60;99.90;;;;;;5054975;28;20447;-79
2024/04/07 11:49:05;;;;;;;2.33;1.67;;;22.60;99.90;;;;;;5049979;28;20471;-79
2024/04/07 11:51:32;;;;;;;8.63;1.80;;;22.80;99.90;;;;;;5049847;28;20476;-80
2024/04/07 11:53:59;;;;;;;9.67;3.00;;;22.80;99.90;;;;;;5050018;28;20484;-79
2024/04/07 11:56:26;;;;;;;5.80;2.40;;;22.90;99.90;;;;;;5049484;28;20557;-79
2024/04/07 11:58:54;;;;;;;4.77;1.50;;;22.80;99.90;;;;;;5044002;28;20459;-80
2024/04/07 12:01:21;;;;;;;3.23;1.70;;;22.80;99.90;;;;;;5052493;28;20458;-80
2024/04/07 12:03:48;;;;;;;3.97;1.90;;;22.80;99.90;;;;;;5050426;28;20444;-80
2024/04/07 12:06:15;;;;;;;5.23;2.00;;;22.90;99.90;;;;;;5035169;28;20534;-80
2024/04/07 12:08:42;;;;;;;4.10;1.70;;;22.90;99.90;;;;;;5049723;28;20450;-80
2024/04/07 12:11:09;;;;;;;4.50;1.80;;;22.80;99.90;;;;;;5050785;28;20463;-80
2024/04/07 12:13:36;;;;;;;2.20;1.70;;;22.90;99.90;;;;;;5052624;28;20937;-80
2024/04/07 12:16:06;;;;;;;3.53;1.67;;;22.90;99.90;;;;;;5048600;28;20517;-80
2024/04/07 12:18:34;;;;;;;5.70;2.33;;;23.00;99.90;;;;;;5050455;28;20558;-80
2024/04/07 12:21:00;;;;;;;3.00;1.87;;;23.00;99.90;;;;;;5052467;28;20467;-80
2024/04/07 12:23:28;;;;;;;4.80;1.90;;;23.00;99.90;;;;;;5050587;28;20434;-81
2024/04/07 12:25:54;;;;;;;5.30;2.10;;;23.10;99.90;;;;;;5049591;28;20185;-79
2024/04/07 12:28:21;;;;;;;5.00;1.90;;;23.10;99.90;;;;;;5032431;28;20975;-81
2024/04/07 12:30:50;;;;;;;6.53;1.87;;;23.20;99.90;;;;;;5051709;28;20478;-80
2024/04/07 12:33:18;;;;;;;3.33;1.97;;;23.20;99.90;;;;;;5055229;28;20593;-80
2024/04/07 12:35:45;;;;;;;7.87;2.10;;;23.20;99.90;;;;;;5054377;28;20490;-80
2024/04/07 12:38:12;;;;;;;4.80;1.93;;;23.20;99.90;;;;;;5053583;28;20459;-80
2024/04/07 12:40:38;;;;;;;7.40;2.13;;;23.10;99.90;;;;;;5049323;28;20528;-80
2024/04/07 12:43:06;;;;;;;8.07;2.27;;;23.20;99.90;;;;;;5052169;28;21206;-80
2024/04/07 12:45:34;;;;;;;3.77;2.30;;;23.10;99.90;;;;;;5052782;28;20949;-81
2024/04/07 12:48:01;;;;;;;6.33;1.80;;;23.10;99.90;;;;;;5050131;28;20558;-79
2024/04/07 12:50:28;;;;;;;4.73;1.87;;;23.20;99.90;;;;;;5050552;28;20610;-80
2024/04/07 12:52:56;;;;;;;6.23;2.03;;;23.20;99.90;;;;;;5029360;28;20585;-79
2024/04/07 12:55:22;;;;;;;8.10;1.73;;;23.10;99.90;;;;;;5052726;28;20858;-80
2024/04/07 12:57:49;;;;;;;3.30;1.77;;;23.20;99.90;;;;;;5053175;28;20542;-80